Главная страница
METAR-TAF:

METAR-TAF

Аэропорты :

Свальбард

Лонгйир, Норвегия

широта: 78-15N, долгота: 015-28E, высота над уровнем моря: 2 м

Текущие метеонаблюдения

Эта сводка был подготовлена 16 минут назад, в 20:20 UTC
Ветер 16 Узел от западный-юго-западный
Температура 4°C
Влажность 65%
Давление 1012 hPa
Видимость 10 км и более
небольшая облачность на высоте 2500 фута

METAR: ENSB 132020Z 25016KT 9999 FEW025 04/M02 Q1012 RMK WIND 1400FT 24012KT

Время: 22:36 (20:36 UTC)

Прогноз

Эта сводка был подготовлена 3 часа и 36 минут назад, в 17:00 UTC
Прогноз действительный с 13-го 18 UTC до 14-го 18 UTC
Ветер 15 Узел от западный
Видимость 10 км и более
небольшая облачность на высоте 1500 фута
Отдельные облака на высоте 2500 фута

TAF: ENSB 131700Z 1318/1418 26015KT 9999 FEW015 SCT025

Метеонаблюдения и прогнозы для более 4000 аэропортов (сводки METAR и TAF).

Имеющиеся станции представлены на карте желтыми и красными точками.

Чтобы увидеть название станции, наведите на нее мышь.

Затем щелкните, чтобы увидеть метеонаблюдения и метеопрогнозы.

Управление картой: чтобы увеличить масштаб, щелкните зеленые кнопки с черным крестиком; чтобы уменьшить масштаб, щелкните зеленую кнопку с тире; для просмотра соседних карт щелкайте зеленые стрелки.


METAR-TAF: